| time (UTC) | temp F | wind direction | speed MPH | gust MPH | rain 1hr in | rain 24hr in | rain mn in | humidity % | barometer mb |
| 20260906075401 | 71 | 0 | 0.0 | 0.0 | 0.00 | 0.16 | 0.00 | 98 | 1010.6 |
| 20260906074500 | 71 | 0 | 0.0 | 0.0 | 0.00 | 0.16 | 0.00 | 98 | 1010.6 |
| 20260906073600 | 71 | 0 | 0.0 | 0.0 | 0.00 | 0.16 | 0.00 | 98 | 1010.6 |
| 20260906072700 | 72 | 0 | 0.0 | 0.0 | 0.00 | 0.16 | 0.00 | 98 | 1010.4 |
| 20260906071821 | 72 | 0 | 0.0 | 0.0 | 0.00 | 0.16 | 0.00 | 98 | 1010.3 |
| 20260906070921 | 72 | 0 | 0.0 | 0.0 | 0.00 | 0.16 | 0.00 | 98 | 1010.5 |
| 20260906070000 | 72 | 0 | 0.0 | 0.0 | 0.00 | 0.16 | 0.00 | 98 | 1010.6 |
| 20260906065400 | 72 | 0 | 0.0 | 0.0 | 0.00 | 0.16 | 0.00 | 98 | 1010.7 |
| 20260906064500 | 72 | 0 | 0.0 | 0.0 | 0.00 | 0.16 | 0.00 | 98 | 1010.9 |
| 20260906063600 | 72 | 0 | 0.0 | 0.0 | 0.00 | 0.16 | 0.00 | 98 | 1010.9 |
| 20260906062700 | 72 | 0 | 0.0 | 0.0 | 0.00 | 0.16 | 0.00 | 98 | 1011.1 |
| 20260906061800 | 72 | 0 | 0.0 | 0.0 | 0.00 | 0.16 | 0.00 | 98 | 1011.2 |
| 20260906060900 | 72 | 298 | 0.0 | 1.0 | 0.00 | 0.16 | 0.00 | 98 | 1011.5 |
| 20260906060000 | 72 | 79 | 0.0 | 1.0 | 0.00 | 0.16 | 0.00 | 98 | 1011.6 |
| 20260906055400 | 72 | 105 | 0.0 | 1.0 | 0.00 | 0.16 | 0.00 | 98 | 1011.7 |
| 20260906054500 | 72 | 0 | 0.0 | 0.0 | 0.00 | 0.16 | 0.00 | 98 | 1011.7 |
| 20260906053621 | 72 | 0 | 0.0 | 0.0 | 0.00 | 0.16 | 0.00 | 98 | 1011.8 |
| 20260906052700 | 72 | 0 | 0.0 | 0.0 | 0.00 | 0.16 | 0.00 | 97 | 1012.0 |
| 20260906051800 | 72 | 0 | 0.0 | 0.0 | 0.00 | 0.16 | 0.00 | 97 | 1012.1 |
| 20260906050921 | 72 | 118 | 0.0 | 1.0 | 0.00 | 0.16 | 0.00 | 97 | 1012.1 |
| 20260906050001 | 72 | 121 | 0.0 | 1.0 | 0.00 | 0.16 | 0.00 | 97 | 1012.1 |
| 20260906045401 | 72 | 119 | 0.0 | 2.0 | 0.00 | 0.16 | 0.00 | 97 | 1012.1 |
| 20260906044522 | 72 | 97 | 1.0 | 2.0 | 0.00 | 0.16 | 0.00 | 97 | 1012.1 |
| 20260906043600 | 72 | 106 | 0.0 | 1.0 | 0.00 | 0.16 | 0.00 | 97 | 1012.2 |
| 20260906042701 | 73 | 80 | 0.0 | 2.0 | 0.00 | 0.16 | 0.00 | 97 | 1012.2 |
| 20260906041821 | 73 | 86 | 0.0 | 2.0 | 0.00 | 0.16 | 0.00 | 98 | 1012.1 |
| 20260906040900 | 72 | 119 | 0.0 | 1.0 | 0.00 | 0.16 | 0.00 | 97 | 1012.1 |
| 20260906040001 | 73 | 118 | 0.0 | 1.0 | 0.00 | 0.16 | 0.00 | 97 | 1012.1 |
| 20260906035422 | 73 | 118 | 0.0 | 1.0 | 0.00 | 0.16 | 0.16 | 97 | 1012.0 |
| 20260906034501 | 73 | 118 | 0.0 | 1.0 | 0.00 | 0.16 | 0.16 | 97 | 1012.1 |
| 20260906033601 | 72 | 118 | 0.0 | 1.0 | 0.00 | 0.16 | 0.16 | 97 | 1012.1 |
| 20260906032701 | 72 | 0 | 0.0 | 0.0 | 0.00 | 0.16 | 0.16 | 97 | 1012.1 |
| 20260906031801 | 73 | 0 | 0.0 | 0.0 | 0.00 | 0.16 | 0.16 | 97 | 1012.1 |
| 20260906030901 | 73 | 0 | 0.0 | 0.0 | 0.00 | 0.16 | 0.16 | 97 | 1012.2 |
| 20260906030001 | 73 | 118 | 0.0 | 1.0 | 0.00 | 0.16 | 0.16 | 97 | 1012.1 |
| 20260906025401 | 73 | 119 | 0.0 | 2.0 | 0.00 | 0.16 | 0.16 | 97 | 1012.1 |
| 20260906024501 | 73 | 0 | 0.0 | 0.0 | 0.00 | 0.16 | 0.16 | 97 | 1012.2 |
| 20260906023622 | 73 | 0 | 0.0 | 0.0 | 0.00 | 0.16 | 0.16 | 97 | 1012.1 |
| 20260906022701 | 73 | 242 | 0.0 | 1.0 | 0.00 | 0.16 | 0.16 | 97 | 1012.3 |
| 20260906021801 | 73 | 242 | 0.0 | 1.0 | 0.00 | 0.16 | 0.16 | 97 | 1012.1 |
| 20260906020901 | 73 | 242 | 0.0 | 1.0 | 0.00 | 0.16 | 0.16 | 97 | 1012.3 |
| 20260906020001 | 73 | 242 | 0.0 | 1.0 | 0.00 | 0.16 | 0.16 | 97 | 1012.0 |
| 20260906015401 | 73 | 242 | 0.0 | 1.0 | 0.00 | 0.16 | 0.16 | 97 | 1012.0 |
| 20260906014501 | 74 | 242 | 0.0 | 1.0 | 0.00 | 0.16 | 0.16 | 96 | 1011.9 |
| 20260906013601 | 74 | 0 | 0.0 | 0.0 | 0.00 | 0.16 | 0.16 | 96 | 1011.7 |
| 20260906012701 | 74 | 259 | 0.0 | 1.0 | 0.00 | 0.16 | 0.16 | 96 | 1011.7 |
| 20260906011801 | 74 | 136 | 0.0 | 1.0 | 0.00 | 0.16 | 0.16 | 96 | 1011.6 |
| 20260906010901 | 74 | 123 | 0.0 | 2.0 | 0.00 | 0.16 | 0.16 | 96 | 1011.5 |
| 20260906010001 | 74 | 3 | 2.0 | 5.0 | 0.00 | 0.16 | 0.16 | 96 | 1011.3 |
| 20260906005401 | 75 | 319 | 1.0 | 4.0 | 0.00 | 0.16 | 0.16 | 96 | 1011.1 |
| 20260906004501 | 75 | 339 | 0.0 | 1.0 | 0.00 | 0.16 | 0.16 | 96 | 1011.3 |
| 20260906003601 | 75 | 22 | 0.0 | 1.0 | 0.00 | 0.16 | 0.16 | 95 | 1011.2 |
| 20260906002701 | 75 | 116 | 0.0 | 1.0 | 0.00 | 0.16 | 0.16 | 95 | 1011.2 |
| 20260906001801 | 75 | 118 | 0.0 | 1.0 | 0.00 | 0.16 | 0.16 | 95 | 1011.3 |
| 20260906000901 | 76 | 0 | 0.0 | 0.0 | 0.00 | 0.16 | 0.16 | 95 | 1011.3 |
| 20260906000001 | 76 | 0 | 0.0 | 0.0 | 0.00 | 0.16 | 0.16 | 95 | 1011.1 |
| 20260905235422 | 76 | 0 | 0.0 | 0.0 | 0.00 | 0.16 | 0.16 | 95 | 1011.1 |
| 20260905234501 | 77 | 0 | 0.0 | 0.0 | 0.00 | 0.16 | 0.16 | 95 | 1011.2 |
| 20260905233601 | 77 | 115 | 0.0 | 3.0 | 0.00 | 0.16 | 0.16 | 95 | 1011.2 |
| 20260905232701 | 77 | 162 | 0.0 | 2.0 | 0.00 | 0.16 | 0.16 | 95 | 1011.1 |
| 20260905231801 | 78 | 119 | 0.0 | 1.0 | 0.00 | 0.16 | 0.16 | 95 | 1010.9 |
| 20260905230902 | 78 | 123 | 1.0 | 3.0 | 0.00 | 0.16 | 0.16 | 95 | 1011.1 |
| 20260905230001 | 78 | 283 | 0.0 | 2.0 | 0.00 | 0.16 | 0.16 | 95 | 1011.3 |
| 20260905225401 | 78 | 149 | 0.0 | 3.0 | 0.00 | 0.16 | 0.16 | 94 | 1011.2 |
| 20260905224501 | 78 | 127 | 1.0 | 3.0 | 0.00 | 0.16 | 0.16 | 95 | 1011.3 |
| 20260905223623 | 78 | 123 | 1.0 | 5.0 | 0.00 | 0.16 | 0.16 | 95 | 1011.4 |
| 20260905222703 | 78 | 91 | 0.0 | 2.0 | 0.00 | 0.16 | 0.16 | 96 | 1011.2 |
| 20260905221801 | 78 | 349 | 0.0 | 1.0 | 0.00 | 0.16 | 0.16 | 96 | 1011.2 |
| 20260905220902 | 78 | 350 | 0.0 | 1.0 | 0.00 | 0.16 | 0.16 | 95 | 1011.1 |
| 20260905220023 | 77 | 356 | 0.0 | 3.0 | 0.01 | 0.16 | 0.16 | 96 | 1010.8 |
| 20260905215402 | 77 | 344 | 1.0 | 3.0 | 0.02 | 0.16 | 0.16 | 95 | 1010.7 |
| 20260905214502 | 77 | 74 | 0.0 | 2.0 | 0.11 | 0.16 | 0.16 | 95 | 1011.2 |
| 20260905213601 | 76 | 103 | 0.0 | 2.0 | 0.15 | 0.16 | 0.16 | 95 | 1011.1 |
| 20260905212701 | 76 | 145 | 0.0 | 1.0 | 0.16 | 0.16 | 0.16 | 94 | 1011.1 |
| 20260905211802 | 76 | 199 | 0.0 | 1.0 | 0.16 | 0.16 | 0.16 | 93 | 1010.9 |
| 20260905210902 | 76 | 233 | 1.0 | 7.0 | 0.16 | 0.16 | 0.16 | 92 | 1011.0 |
| 20260905210002 | 76 | 280 | 4.0 | 10.0 | 0.15 | 0.15 | 0.15 | 90 | 1011.4 |
| 20260905205402 | 77 | 284 | 7.0 | 14.0 | 0.14 | 0.14 | 0.14 | 90 | 1011.6 |
| 20260905204501 | 80 | 277 | 12.0 | 22.0 | 0.05 | 0.05 | 0.05 | 88 | 1011.8 |
| 20260905203603 | 88 | 280 | 5.0 | 22.0 | 0.01 | 0.01 | 0.01 | 75 | 1011.2 |
| 20260905202702 | 96 | 309 | 1.0 | 5.0 | 0.00 | 0.00 | 0.00 | 56 | 1009.9 |
| 20260905201802 | 97 | 340 | 0.0 | 3.0 | 0.00 | 0.00 | 0.00 | 58 | 1009.8 |
| 20260905200902 | 99 | 285 | 0.0 | 1.0 | 0.00 | 0.00 | 0.00 | 54 | 1009.8 |
| 20260905200002 | 100 | 115 | 1.0 | 2.0 | 0.00 | 0.00 | 0.00 | 53 | 1009.9 |
| 20260905195402 | 100 | 121 | 1.0 | 2.0 | 0.00 | 0.00 | 0.00 | 55 | 1010.0 |
| 20260905194502 | 98 | 62 | 1.0 | 4.0 | 0.00 | 0.00 | 0.00 | 54 | 1010.2 |
| 20260905193605 | 97 | 292 | 3.0 | 11.0 | 0.00 | 0.00 | 0.00 | 57 | 1010.1 |
| 20260905192702 | 97 | 233 | 4.0 | 12.0 | 0.00 | 0.00 | 0.00 | 56 | 1010.0 |
| 20260905191802 | 99 | 119 | 2.0 | 7.0 | 0.00 | 0.00 | 0.00 | 53 | 1010.3 |
| 20260905190902 | 98 | 94 | 2.0 | 4.0 | 0.00 | 0.00 | 0.00 | 57 | 1010.2 |
| 20260905190002 | 98 | 113 | 2.0 | 7.0 | 0.00 | 0.00 | 0.00 | 56 | 1010.4 |
| 20260905185402 | 98 | 301 | 2.0 | 7.0 | 0.00 | 0.00 | 0.00 | 55 | 1010.4 |
| 20260905184502 | 97 | 270 | 2.0 | 5.0 | 0.00 | 0.00 | 0.00 | 55 | 1010.5 |
| 20260905183602 | 99 | 115 | 2.0 | 7.0 | 0.00 | 0.00 | 0.00 | 54 | 1010.8 |
| 20260905182702 | 98 | 128 | 3.0 | 9.0 | 0.00 | 0.00 | 0.00 | 57 | 1010.8 |
| 20260905181823 | 98 | 168 | 3.0 | 9.0 | 0.00 | 0.00 | 0.00 | 55 | 1011.1 |
| 20260905180902 | 97 | 295 | 4.0 | 9.0 | 0.00 | 0.00 | 0.00 | 57 | 1011.3 |
| 20260905180002 | 97 | 149 | 3.0 | 10.0 | 0.00 | 0.00 | 0.00 | 58 | 1011.6 |
| 20260905175402 | 97 | 124 | 3.0 | 9.0 | 0.00 | 0.00 | 0.00 | 58 | 1011.6 |
| 20260905174502 | 96 | 286 | 4.0 | 12.0 | 0.00 | 0.00 | 0.00 | 59 | 1011.8 |
| 20260905173602 | 96 | 243 | 3.0 | 13.0 | 0.00 | 0.00 | 0.00 | 59 | 1011.8 |
| 20260905172702 | 96 | 281 | 3.0 | 8.0 | 0.00 | 0.00 | 0.00 | 60 | 1011.9 |
| 20260905171802 | 96 | 197 | 2.0 | 5.0 | 0.00 | 0.00 | 0.00 | 59 | 1012.1 |
| 20260905170923 | 95 | 176 | 3.0 | 7.0 | 0.00 | 0.00 | 0.00 | 61 | 1012.3 |
| 20260905170003 | 95 | 257 | 3.0 | 9.0 | 0.00 | 0.00 | 0.00 | 62 | 1012.4 |
| 20260905165402 | 95 | 271 | 2.0 | 7.0 | 0.00 | 0.00 | 0.00 | 60 | 1012.4 |
| 20260905164502 | 94 | 228 | 3.0 | 8.0 | 0.00 | 0.00 | 0.00 | 63 | 1012.7 |
| 20260905163602 | 94 | 263 | 2.0 | 7.0 | 0.00 | 0.00 | 0.00 | 63 | 1012.9 |
| 20260905162702 | 93 | 275 | 3.0 | 9.0 | 0.00 | 0.00 | 0.00 | 66 | 1013.1 |
| 20260905161803 | 93 | 265 | 2.0 | 7.0 | 0.00 | 0.00 | 0.00 | 65 | 1013.1 |
| 20260905160902 | 93 | 251 | 2.0 | 8.0 | 0.00 | 0.00 | 0.00 | 68 | 1013.2 |
| 20260905160002 | 92 | 255 | 3.0 | 8.0 | 0.00 | 0.00 | 0.00 | 69 | 1013.2 |
| 20260905155423 | 92 | 276 | 4.0 | 8.0 | 0.00 | 0.00 | 0.00 | 70 | 1013.1 |
| 20260905154502 | 92 | 217 | 3.0 | 6.0 | 0.00 | 0.00 | 0.00 | 71 | 1013.3 |
| 20260905153602 | 91 | 262 | 2.0 | 6.0 | 0.00 | 0.00 | 0.00 | 73 | 1013.3 |
| 20260905152702 | 90 | 287 | 3.0 | 8.0 | 0.00 | 0.00 | 0.00 | 74 | 1013.5 |
| 20260905151802 | 89 | 262 | 3.0 | 7.0 | 0.00 | 0.00 | 0.00 | 74 | 1013.5 |
| 20260905150903 | 89 | 275 | 2.0 | 8.0 | 0.00 | 0.00 | 0.00 | 74 | 1013.7 |
| 20260905150003 | 89 | 282 | 3.0 | 8.0 | 0.00 | 0.00 | 0.00 | 75 | 1013.8 |
| 20260905145402 | 88 | 248 | 3.0 | 8.0 | 0.00 | 0.00 | 0.00 | 76 | 1013.7 |
| 20260905144503 | 87 | 256 | 2.0 | 7.0 | 0.00 | 0.00 | 0.00 | 78 | 1013.9 |
| 20260905143624 | 86 | 244 | 2.0 | 5.0 | 0.00 | 0.00 | 0.00 | 80 | 1013.9 |
| 20260905142724 | 86 | 272 | 3.0 | 8.0 | 0.00 | 0.00 | 0.00 | 81 | 1013.9 |
| 20260905141803 | 86 | 275 | 2.0 | 7.0 | 0.00 | 0.00 | 0.00 | 82 | 1013.9 |
| 20260905140903 | 84 | 259 | 2.0 | 7.0 | 0.00 | 0.00 | 0.00 | 83 | 1014.0 |
| 20260905140003 | 84 | 266 | 1.0 | 5.0 | 0.00 | 0.00 | 0.00 | 84 | 1014.0 |
| 20260905135423 | 83 | 263 | 2.0 | 5.0 | 0.00 | 0.00 | 0.00 | 85 | 1013.9 |
| 20260905134503 | 82 | 229 | 2.0 | 6.0 | 0.00 | 0.00 | 0.00 | 86 | 1013.9 |
| 20260905133603 | 82 | 240 | 2.0 | 6.0 | 0.00 | 0.00 | 0.00 | 86 | 1014.0 |
| 20260905132702 | 81 | 242 | 2.0 | 5.0 | 0.00 | 0.00 | 0.00 | 88 | 1014.0 |
| 20260905131803 | 80 | 269 | 2.0 | 6.0 | 0.00 | 0.00 | 0.00 | 89 | 1014.0 |
| 20260905130903 | 80 | 253 | 1.0 | 5.0 | 0.00 | 0.00 | 0.00 | 90 | 1014.2 |
| 20260905130003 | 79 | 266 | 2.0 | 5.0 | 0.00 | 0.00 | 0.00 | 90 | 1014.2 |
| 20260905125403 | 79 | 281 | 2.0 | 6.0 | 0.00 | 0.00 | 0.00 | 91 | 1014.2 |
| 20260905124503 | 78 | 283 | 2.0 | 6.0 | 0.00 | 0.00 | 0.00 | 92 | 1014.1 |
| 20260905123603 | 78 | 252 | 1.0 | 4.0 | 0.00 | 0.00 | 0.00 | 92 | 1014.0 |
| 20260905122703 | 77 | 247 | 2.0 | 6.0 | 0.00 | 0.00 | 0.00 | 93 | 1014.0 |
| 20260905121824 | 76 | 263 | 1.0 | 5.0 | 0.00 | 0.00 | 0.00 | 94 | 1014.1 |
| 20260905120903 | 76 | 257 | 0.0 | 2.0 | 0.00 | 0.00 | 0.00 | 95 | 1014.0 |
| 20260905120003 | 76 | 268 | 1.0 | 5.0 | 0.00 | 0.00 | 0.00 | 95 | 1013.9 |
| 20260905115403 | 75 | 261 | 1.0 | 5.0 | 0.00 | 0.00 | 0.00 | 96 | 1013.8 |
| 20260905114503 | 75 | 274 | 1.0 | 4.0 | 0.00 | 0.00 | 0.00 | 96 | 1013.8 |
| 20260905113603 | 75 | 284 | 0.0 | 2.0 | 0.00 | 0.00 | 0.00 | 96 | 1013.8 |
| 20260905112703 | 75 | 320 | 0.0 | 1.0 | 0.00 | 0.00 | 0.00 | 96 | 1013.7 |
| 20260905111803 | 75 | 269 | 0.0 | 2.0 | 0.00 | 0.00 | 0.00 | 96 | 1013.6 |
| 20260905110903 | 75 | 300 | 0.0 | 2.0 | 0.00 | 0.00 | 0.00 | 95 | 1013.5 |
| 20260905110003 | 75 | 281 | 0.0 | 2.0 | 0.00 | 0.00 | 0.00 | 95 | 1013.3 |
| 20260905105403 | 75 | 265 | 0.0 | 2.0 | 0.00 | 0.00 | 0.00 | 95 | 1013.4 |
| 20260905104503 | 75 | 258 | 1.0 | 2.0 | 0.00 | 0.00 | 0.00 | 95 | 1013.3 |
| 20260905103603 | 75 | 273 | 1.0 | 3.0 | 0.00 | 0.00 | 0.00 | 95 | 1013.3 |
| 20260905102703 | 75 | 281 | 1.0 | 3.0 | 0.00 | 0.00 | 0.00 | 95 | 1013.1 |
| 20260905101803 | 75 | 261 | 0.0 | 2.0 | 0.00 | 0.00 | 0.00 | 95 | 1013.0 |
| 20260905100903 | 75 | 262 | 0.0 | 2.0 | 0.00 | 0.00 | 0.00 | 95 | 1013.0 |
| 20260905095959 | 75 | 254 | 0.0 | 1.0 | 0.00 | 0.00 | 0.00 | 95 | 1013.0 |
| 20260905095359 | 75 | 258 | 0.0 | 1.0 | 0.00 | 0.00 | 0.00 | 95 | 1013.0 |
| 20260905094459 | 75 | 276 | 0.0 | 1.0 | 0.00 | 0.00 | 0.00 | 95 | 1013.0 |
| 20260905093559 | 75 | 284 | 0.0 | 1.0 | 0.00 | 0.00 | 0.00 | 95 | 1013.1 |
| 20260905092659 | 75 | 262 | 0.0 | 1.0 | 0.00 | 0.00 | 0.00 | 95 | 1013.0 |
| 20260905091759 | 75 | 285 | 0.0 | 2.0 | 0.00 | 0.00 | 0.00 | 95 | 1013.1 |
| 20260905090920 | 76 | 285 | 0.0 | 1.0 | 0.00 | 0.00 | 0.00 | 95 | 1013.1 |
| 20260905085959 | 76 | 247 | 0.0 | 2.0 | 0.00 | 0.00 | 0.00 | 94 | 1013.2 |
| 20260905085420 | 76 | 248 | 0.0 | 2.0 | 0.00 | 0.00 | 0.00 | 95 | 1013.2 |
| 20260905084459 | 76 | 264 | 0.0 | 2.0 | 0.00 | 0.00 | 0.00 | 94 | 1013.1 |
| 20260905083559 | 76 | 220 | 0.0 | 1.0 | 0.00 | 0.00 | 0.00 | 94 | 1013.1 |
| 20260905082659 | 76 | 241 | 0.0 | 1.0 | 0.00 | 0.00 | 0.00 | 94 | 1013.2 |
| 20260905081800 | 76 | 278 | 0.0 | 1.0 | 0.00 | 0.00 | 0.00 | 94 | 1013.2 |
| 20260905080921 | 76 | 274 | 0.0 | 1.0 | 0.00 | 0.00 | 0.00 | 94 | 1013.2 |
| 20260905075959 | 76 | 265 | 0.0 | 1.0 | 0.00 | 0.00 | 0.00 | 94 | 1013.4 |